Time;durP1;ratioP1;P1;durP2;ratioP2;P2;SDS_P1;SDS_P2;PMS_P1;PMS_P2;Temp;Humidity;BMP_temperature;BMP_pressure;BME280_temperature;BME280_humidity;BME280_pressure;Samples;Min_cycle;Max_cycle;Signal;HPM_P1;HPM_P2
2021/10/09 00:01:24;;;;;;;25.88;21.65;;;13.70;97.90;;;;;;5048119;28;20571;-89
2021/10/09 00:03:51;;;;;;;25.75;21.95;;;13.60;97.70;;;;;;5036626;28;20022;-88
2021/10/09 00:06:17;;;;;;;28.23;22.00;;;13.60;97.70;;;;;;5035092;28;20036;-88
2021/10/09 00:08:43;;;;;;;26.52;23.20;;;13.60;97.80;;;;;;5031979;28;20022;-88
2021/10/09 00:11:16;;;;;;;26.85;22.50;;;13.50;97.70;;;;;;5027238;28;20018;-88
2021/10/09 00:13:41;;;;;;;26.00;22.00;;;13.60;97.80;;;;;;5006500;28;20025;-88
2021/10/09 00:16:07;;;;;;;27.75;21.50;;;13.60;97.80;;;;;;5019494;28;20033;-88
2021/10/09 00:18:33;;;;;;;25.80;22.23;;;13.50;97.70;;;;;;5024050;28;20026;-88
2021/10/09 00:20:58;;;;;;;28.10;22.23;;;13.50;97.80;;;;;;5033608;28;20033;-88
2021/10/09 00:23:24;;;;;;;28.42;23.33;;;13.50;97.80;;;;;;4985684;28;20037;-88
2021/10/09 00:25:50;;;;;;;27.52;22.70;;;13.50;97.90;;;;;;5028535;28;20037;-89
2021/10/09 00:28:15;;;;;;;27.77;22.95;;;13.50;97.80;;;;;;5018851;28;20025;-90
2021/10/09 00:30:41;;;;;;;29.77;24.25;;;13.50;97.90;;;;;;5018487;28;20041;-88
2021/10/09 00:33:07;;;;;;;27.88;22.42;;;13.50;98.00;;;;;;5034994;28;20359;-89
2021/10/09 00:35:32;;;;;;;28.67;23.33;;;13.40;97.90;;;;;;5018778;28;20112;-89
2021/10/09 00:37:58;;;;;;;29.98;24.02;;;13.40;97.90;;;;;;5051539;28;20401;-88
2021/10/09 00:40:24;;;;;;;28.50;23.67;;;13.40;97.80;;;;;;5034190;28;20042;-89
2021/10/09 00:42:50;;;;;;;30.80;23.55;;;13.40;97.80;;;;;;5034121;28;20025;-89
2021/10/09 00:45:15;;;;;;;29.83;23.85;;;13.30;97.80;;;;;;5034798;28;20038;-90
2021/10/09 00:47:41;;;;;;;29.40;24.02;;;13.30;97.80;;;;;;5034689;28;20025;-90
2021/10/09 00:50:07;;;;;;;30.38;24.80;;;13.30;97.90;;;;;;5034336;28;20034;-89
2021/10/09 00:52:35;;;;;;;34.53;24.65;;;13.30;97.90;;;;;;5027316;28;20060;-89
2021/10/09 00:55:04;;;;;;;28.77;24.17;;;13.30;98.00;;;;;;5017790;28;20033;-89
2021/10/09 00:57:31;;;;;;;30.13;24.60;;;13.30;97.90;;;;;;5022768;28;20054;-90
2021/10/09 01:00:02;;;;;;;29.95;24.27;;;13.20;97.90;;;;;;5032663;28;20033;-90
2021/10/09 01:02:28;;;;;;;30.50;23.98;;;13.20;97.90;;;;;;5033996;28;20029;-90
2021/10/09 01:04:56;;;;;;;31.40;23.77;;;13.20;98.00;;;;;;5021807;28;20030;-90
2021/10/09 01:07:22;;;;;;;30.88;24.67;;;13.20;97.90;;;;;;5031284;28;20025;-90
2021/10/09 01:09:47;;;;;;;29.88;24.55;;;13.20;98.00;;;;;;5010911;28;20333;-90
2021/10/09 01:12:14;;;;;;;29.45;23.60;;;13.10;97.90;;;;;;5000992;28;20026;-90
2021/10/09 01:14:41;;;;;;;32.53;26.00;;;13.10;98.00;;;;;;5019889;28;20022;-90
2021/10/09 01:17:12;;;;;;;31.95;24.67;;;13.10;98.00;;;;;;5018280;28;20026;-89
2021/10/09 01:19:39;;;;;;;29.98;24.63;;;13.10;98.10;;;;;;5021188;28;20022;-89
2021/10/09 01:22:06;;;;;;;29.88;25.38;;;13.10;98.00;;;;;;5027690;28;20029;-90
2021/10/09 01:24:31;;;;;;;31.58;24.77;;;13.10;98.00;;;;;;5022360;28;20072;-90
2021/10/09 01:26:57;;;;;;;30.48;25.40;;;13.10;98.00;;;;;;5035505;28;20037;-90
2021/10/09 01:29:23;;;;;;;31.75;25.45;;;13.00;98.00;;;;;;5018456;28;20037;-90
2021/10/09 01:31:49;;;;;;;31.80;24.95;;;13.00;98.10;;;;;;5017916;28;20087;-89
2021/10/09 01:34:23;;;;;;;31.92;25.02;;;13.00;98.00;;;;;;5034364;28;20109;-89
2021/10/09 01:36:50;;;;;;;33.08;26.17;;;13.00;98.00;;;;;;5044796;28;20033;-89
2021/10/09 01:39:16;;;;;;;31.75;24.48;;;13.00;98.00;;;;;;5055873;28;20028;-89
2021/10/09 01:41:45;;;;;;;32.28;25.40;;;13.00;98.00;;;;;;5058794;28;20049;-88
2021/10/09 01:44:12;;;;;;;34.28;26.17;;;13.00;98.10;;;;;;5061132;28;20013;-88
2021/10/09 01:46:37;;;;;;;32.30;25.90;;;12.90;98.00;;;;;;5061343;28;20041;-89
2021/10/09 01:49:07;;;;;;;34.15;25.67;;;12.90;98.10;;;;;;5060495;28;20085;-89
2021/10/09 01:51:34;;;;;;;31.38;25.75;;;12.90;98.10;;;;;;5043292;28;20020;-89
2021/10/09 01:54:00;;;;;;;31.77;25.85;;;12.90;98.20;;;;;;5060232;28;20029;-89
2021/10/09 01:56:26;;;;;;;33.28;25.92;;;12.90;98.20;;;;;;5042483;28;20033;-89
2021/10/09 01:58:52;;;;;;;33.50;27.80;;;12.90;98.20;;;;;;5021198;28;20048;-90
2021/10/09 02:01:18;;;;;;;34.33;26.92;;;12.90;98.20;;;;;;5020898;28;20053;-89
2021/10/09 02:03:44;;;;;;;33.00;26.27;;;12.80;98.20;;;;;;5004763;28;20484;-90
2021/10/09 02:06:10;;;;;;;33.38;27.42;;;12.80;98.20;;;;;;5004287;28;20030;-89
2021/10/09 02:08:36;;;;;;;34.78;26.10;;;12.80;98.20;;;;;;5020231;28;20029;-89
2021/10/09 02:11:08;;;;;;;34.42;27.90;;;12.80;98.20;;;;;;5038769;28;20025;-89
2021/10/09 02:13:41;;;;;;;33.20;25.95;;;12.80;98.20;;;;;;5037293;28;20053;-89
2021/10/09 02:16:35;;;;;;;34.97;26.77;;;12.80;98.20;;;;;;5021811;28;20034;-89
2021/10/09 02:27:12;;;;;;;32.78;26.95;;;12.70;98.20;;;;;;5004278;28;20029;-89
2021/10/09 02:29:38;;;;;;;35.35;27.45;;;12.70;98.30;;;;;;5021154;28;20395;-90
2021/10/09 02:32:04;;;;;;;35.25;27.17;;;12.70;98.20;;;;;;5027575;28;20018;-89
2021/10/09 02:34:29;;;;;;;38.08;28.88;;;12.60;98.20;;;;;;5000463;28;20022;-88
2021/10/09 02:36:55;;;;;;;33.72;28.02;;;12.60;98.20;;;;;;5033756;28;20376;-90
2021/10/09 02:39:21;;;;;;;36.10;26.95;;;12.60;98.20;;;;;;5001215;28;20040;-89
2021/10/09 02:41:46;;;;;;;33.88;27.35;;;12.60;98.30;;;;;;5004377;28;20028;-90
2021/10/09 02:44:12;;;;;;;36.60;28.23;;;12.60;98.30;;;;;;5036880;28;20101;-90
2021/10/09 02:46:38;;;;;;;34.88;27.52;;;12.60;98.20;;;;;;5019277;28;20033;-90
2021/10/09 02:49:04;;;;;;;35.63;27.33;;;12.60;98.20;;;;;;5040103;28;20120;-90
2021/10/09 02:51:30;;;;;;;36.38;27.13;;;12.50;98.20;;;;;;5021898;28;20017;-89
2021/10/09 02:53:56;;;;;;;35.88;26.92;;;12.50;98.50;;;;;;5036549;28;20368;-89
2021/10/09 02:56:21;;;;;;;36.38;28.08;;;12.50;98.20;;;;;;5019844;28;20033;-88
2021/10/09 02:58:47;;;;;;;35.05;28.25;;;12.50;98.30;;;;;;5019414;28;20607;-88
2021/10/09 03:01:18;;;;;;;36.97;28.55;;;12.50;98.30;;;;;;5019369;28;20080;-89
2021/10/09 03:03:44;;;;;;;37.33;27.80;;;12.40;98.30;;;;;;5036559;28;20083;-89
2021/10/09 03:06:10;;;;;;;37.33;29.25;;;12.40;98.30;;;;;;5019367;28;20037;-90
2021/10/09 03:08:35;;;;;;;38.47;28.80;;;12.40;98.30;;;;;;5002522;28;20433;-89
2021/10/09 03:11:01;;;;;;;34.75;28.02;;;12.40;98.30;;;;;;5035631;28;20036;-89
2021/10/09 03:13:26;;;;;;;35.42;28.02;;;12.40;98.20;;;;;;5035324;28;20033;-90
2021/10/09 03:15:52;;;;;;;37.75;28.27;;;12.40;98.30;;;;;;5036095;28;20036;-89
2021/10/09 03:18:18;;;;;;;36.17;28.48;;;12.40;98.40;;;;;;5019045;28;20038;-89
2021/10/09 03:20:43;;;;;;;38.58;28.15;;;12.30;98.30;;;;;;5035976;28;20022;-89
2021/10/09 03:23:09;;;;;;;33.28;26.38;;;12.30;98.30;;;;;;5019562;28;20025;-88
2021/10/09 03:25:35;;;;;;;42.08;28.38;;;12.30;98.30;;;;;;5035761;28;20084;-89
2021/10/09 03:28:00;;;;;;;37.53;29.42;;;12.30;98.40;;;;;;5013605;28;20025;-88
2021/10/09 03:30:26;;;;;;;39.45;30.05;;;12.30;98.40;;;;;;5035900;28;20533;-89
2021/10/09 03:32:52;;;;;;;40.00;29.25;;;12.20;98.30;;;;;;5021657;28;20045;-89
2021/10/09 03:35:18;;;;;;;37.50;28.85;;;12.20;98.40;;;;;;5024305;28;20040;-88
2021/10/09 03:37:44;;;;;;;35.78;28.95;;;12.20;98.40;;;;;;5023597;28;20531;-89
2021/10/09 03:40:14;;;;;;;35.15;27.40;;;12.20;98.40;;;;;;5035341;28;20033;-89
2021/10/09 03:42:46;;;;;;;37.45;28.50;;;12.20;98.40;;;;;;5034617;28;20018;-89
2021/10/09 03:52:47;;;;;;;37.00;28.17;;;12.10;98.40;;;;;;5035188;28;20037;-89
2021/10/09 03:55:16;;;;;;;39.95;27.95;;;12.10;98.50;;;;;;5002009;28;20039;-90
2021/10/09 03:57:42;;;;;;;40.47;29.42;;;12.00;98.40;;;;;;5034286;28;20513;-89
2021/10/09 04:00:10;;;;;;;35.70;27.77;;;12.10;98.30;;;;;;5034722;28;20025;-89
2021/10/09 04:02:36;;;;;;;35.50;27.45;;;12.00;98.30;;;;;;5018050;28;20022;-89
2021/10/09 04:05:03;;;;;;;38.60;29.52;;;12.00;98.40;;;;;;5017367;28;20029;-89
2021/10/09 04:07:29;;;;;;;36.38;27.70;;;12.00;98.40;;;;;;5034330;28;20040;-89
2021/10/09 04:09:54;;;;;;;39.47;27.70;;;12.00;98.40;;;;;;5034035;28;20037;-89
2021/10/09 04:12:20;;;;;;;35.30;28.30;;;11.90;98.40;;;;;;5034976;28;20025;-89
2021/10/09 04:14:46;;;;;;;35.38;27.48;;;11.90;98.40;;;;;;5034125;28;20028;-89
2021/10/09 04:17:12;;;;;;;38.47;28.77;;;11.90;98.50;;;;;;5034613;28;20117;-91
2021/10/09 04:19:38;;;;;;;41.88;28.17;;;11.90;98.40;;;;;;5034423;28;20075;-90
2021/10/09 04:22:04;;;;;;;36.92;28.38;;;11.80;98.40;;;;;;5035411;28;20108;-91
2021/10/09 04:24:30;;;;;;;38.13;28.27;;;11.80;98.40;;;;;;5034155;28;20053;-91
2021/10/09 04:26:56;;;;;;;38.03;28.33;;;11.80;98.30;;;;;;5034069;28;20466;-91
2021/10/09 04:29:22;;;;;;;35.28;26.67;;;11.80;98.40;;;;;;5034286;28;20038;-91
2021/10/09 04:31:48;;;;;;;37.75;28.30;;;11.80;98.40;;;;;;5035112;28;20033;-90
2021/10/09 04:34:14;;;;;;;39.22;27.92;;;11.70;98.30;;;;;;5017291;28;20049;-91
2021/10/09 04:36:40;;;;;;;38.08;29.30;;;11.70;98.30;;;;;;5034157;28;20033;-91
2021/10/09 04:39:06;;;;;;;34.33;25.70;;;11.70;98.30;;;;;;5001434;28;20135;-90
2021/10/09 04:41:31;;;;;;;38.25;28.15;;;11.70;98.30;;;;;;5033829;28;20095;-88
2021/10/09 04:43:57;;;;;;;36.55;27.83;;;11.60;98.20;;;;;;5017224;28;20025;-88
2021/10/09 04:46:23;;;;;;;34.28;26.85;;;11.60;98.30;;;;;;5030263;28;20034;-89
2021/10/09 04:48:48;;;;;;;34.15;27.00;;;11.60;98.40;;;;;;5019858;28;20022;-88
2021/10/09 04:51:14;;;;;;;37.22;27.20;;;11.50;98.20;;;;;;5028639;28;20021;-89
2021/10/09 04:53:40;;;;;;;34.67;25.98;;;11.50;98.20;;;;;;5000416;28;20070;-89
2021/10/09 04:56:06;;;;;;;39.35;27.73;;;11.50;98.20;;;;;;5013266;28;20069;-88
2021/10/09 04:58:31;;;;;;;37.65;27.42;;;11.50;98.20;;;;;;5027321;28;20041;-90
2021/10/09 05:00:57;;;;;;;39.08;26.15;;;11.40;98.20;;;;;;5025915;28;20642;-89
2021/10/09 05:03:23;;;;;;;35.38;27.15;;;11.40;98.30;;;;;;5030768;28;20018;-89
2021/10/09 05:05:49;;;;;;;36.65;27.63;;;11.40;98.30;;;;;;4997725;28;20045;-88
2021/10/09 05:08:15;;;;;;;36.90;28.02;;;11.40;98.30;;;;;;4981674;28;20026;-89
2021/10/09 05:10:42;;;;;;;34.13;25.55;;;11.40;98.40;;;;;;5014423;28;20034;-89
2021/10/09 05:13:08;;;;;;;36.58;27.00;;;11.30;98.40;;;;;;4998504;28;20121;-91
2021/10/09 05:15:38;;;;;;;33.60;25.63;;;11.40;98.50;;;;;;4997069;28;20426;-90
2021/10/09 05:18:04;;;;;;;34.80;26.57;;;11.30;98.50;;;;;;5015669;28;20096;-89
2021/10/09 05:20:30;;;;;;;35.25;26.75;;;11.30;98.50;;;;;;5023837;28;20260;-88
2021/10/09 05:22:55;;;;;;;37.40;26.67;;;11.30;98.40;;;;;;5056339;28;20039;-89
2021/10/09 05:25:21;;;;;;;37.67;26.27;;;11.30;98.40;;;;;;5057111;28;20397;-89
2021/10/09 05:27:58;;;;;;;37.53;26.83;;;11.30;98.50;;;;;;5056930;28;20044;-89
2021/10/09 05:30:24;;;;;;;35.13;26.45;;;11.30;98.50;;;;;;5055920;28;20044;-89
2021/10/09 05:33:12;;;;;;;37.72;27.85;;;11.30;98.60;;;;;;5055596;28;20325;-89
2021/10/09 05:35:39;;;;;;;37.03;26.83;;;11.30;98.70;;;;;;5042598;28;20013;-87
2021/10/09 05:38:04;;;;;;;37.95;28.42;;;11.20;98.60;;;;;;5042553;28;20026;-90
2021/10/09 05:40:30;;;;;;;35.08;26.98;;;11.20;98.60;;;;;;5016983;28;20029;-90
2021/10/09 05:42:56;;;;;;;35.97;27.15;;;11.20;98.90;;;;;;5016836;28;20033;-89
2021/10/09 05:45:21;;;;;;;36.90;27.95;;;11.20;98.60;;;;;;5000233;28;20120;-90
2021/10/09 05:47:49;;;;;;;34.25;26.08;;;11.20;98.60;;;;;;5033224;28;20476;-88
2021/10/09 05:50:16;;;;;;;35.13;26.42;;;11.10;98.60;;;;;;5017084;28;20053;-91
2021/10/09 05:52:58;;;;;;;36.75;27.08;;;11.10;98.60;;;;;;5032641;28;20030;-90
2021/10/09 05:55:30;;;;;;;37.28;27.17;;;11.10;98.60;;;;;;5018523;28;20033;-90
2021/10/09 06:59:43;;;;;;;41.47;27.67;;;11.00;99.30;;;;;;5037684;28;20600;-90
2021/10/09 07:02:11;;;;;;;36.35;27.15;;;11.10;99.30;;;;;;5036498;28;20040;-90
2021/10/09 07:04:37;;;;;;;41.00;29.33;;;11.00;99.30;;;;;;5003273;28;20060;-90
2021/10/09 07:07:05;;;;;;;39.25;28.65;;;11.10;99.40;;;;;;5036795;28;20044;-90
2021/10/09 07:09:31;;;;;;;37.28;27.67;;;11.00;99.40;;;;;;5019241;28;20087;-90
2021/10/09 07:11:57;;;;;;;40.95;28.92;;;11.10;99.50;;;;;;5038914;28;20469;-90
2021/10/09 07:14:22;;;;;;;37.30;27.90;;;11.10;99.50;;;;;;5036990;28;20022;-91
2021/10/09 07:16:49;;;;;;;39.13;28.80;;;11.10;99.50;;;;;;5035540;28;20041;-91
2021/10/09 07:19:18;;;;;;;37.25;27.90;;;11.10;99.50;;;;;;5003768;28;20029;-91
2021/10/09 07:21:44;;;;;;;34.05;26.13;;;11.20;99.40;;;;;;5018957;28;20033;-91
2021/10/09 07:24:10;;;;;;;34.65;26.75;;;11.20;99.40;;;;;;5035808;28;20041;-90
2021/10/09 07:26:35;;;;;;;36.88;25.98;;;11.20;99.40;;;;;;5018745;28;20034;-89
2021/10/09 07:29:01;;;;;;;36.35;27.02;;;11.20;99.50;;;;;;5041101;28;20025;-90
2021/10/09 07:31:26;;;;;;;37.22;26.08;;;11.20;99.50;;;;;;5061722;28;20033;-90
2021/10/09 07:33:52;;;;;;;34.65;25.27;;;11.20;99.50;;;;;;5041765;28;20382;-90
2021/10/09 07:36:18;;;;;;;36.60;26.50;;;11.20;99.50;;;;;;5020640;28;20474;-91
2021/10/09 07:38:44;;;;;;;38.72;27.67;;;11.30;99.50;;;;;;5046951;28;20425;-90
2021/10/09 07:41:10;;;;;;;37.88;27.13;;;11.30;99.40;;;;;;5034001;28;20048;-90
2021/10/09 07:43:36;;;;;;;39.17;27.63;;;11.30;99.40;;;;;;5021368;28;20109;-91
2021/10/09 07:46:01;;;;;;;36.28;26.85;;;11.30;99.40;;;;;;5034515;28;20126;-90
2021/10/09 07:48:27;;;;;;;39.42;28.02;;;11.30;99.40;;;;;;5018168;28;20065;-91
2021/10/09 07:50:55;;;;;;;38.42;28.17;;;11.30;99.40;;;;;;5015270;28;20022;-90
2021/10/09 07:53:21;;;;;;;41.20;29.00;;;11.30;99.40;;;;;;5018866;28;20032;-90
2021/10/09 07:55:47;;;;;;;40.10;28.20;;;11.30;99.40;;;;;;5034784;28;20100;-90
2021/10/09 07:58:13;;;;;;;37.10;27.17;;;11.30;99.30;;;;;;5034636;28;20061;-90
2021/10/09 08:00:39;;;;;;;37.95;26.80;;;11.30;99.20;;;;;;5034978;28;20030;-90
2021/10/09 08:03:05;;;;;;;38.75;26.83;;;11.30;99.10;;;;;;5018106;28;20492;-89
2021/10/09 08:05:33;;;;;;;34.95;25.83;;;11.20;99.10;;;;;;5027066;28;20030;-89
2021/10/09 08:07:59;;;;;;;35.65;26.35;;;11.20;99.10;;;;;;5025378;28;20029;-88
2021/10/09 08:10:25;;;;;;;39.13;26.52;;;11.30;99.20;;;;;;5020720;28;20025;-89
2021/10/09 08:12:50;;;;;;;36.17;26.23;;;11.30;99.10;;;;;;5034535;28;20371;-90
2021/10/09 08:15:16;;;;;;;37.08;26.83;;;11.30;99.00;;;;;;5017261;28;20037;-90
2021/10/09 08:17:42;;;;;;;43.58;27.33;;;11.30;99.10;;;;;;5034764;28;20053;-89
2021/10/09 08:20:08;;;;;;;35.22;25.45;;;11.20;99.10;;;;;;5051181;28;20104;-90
2021/10/09 08:22:39;;;;;;;40.42;27.80;;;11.20;99.10;;;;;;5035603;28;20108;-89
2021/10/09 08:36:13;;;;;;;33.50;24.25;;;11.20;99.10;;;;;;5048419;28;20052;-89
2021/10/09 08:38:52;;;;;;;38.70;25.40;;;11.30;99.20;;;;;;5034655;28;20124;-90
2021/10/09 08:41:18;;;;;;;31.83;23.30;;;11.30;99.30;;;;;;5031739;28;20450;-90
2021/10/09 08:43:45;;;;;;;31.55;23.00;;;11.40;99.40;;;;;;5028431;28;20018;-90
2021/10/09 08:46:11;;;;;;;34.42;25.65;;;11.40;99.40;;;;;;5033549;28;20096;-90
2021/10/09 08:48:41;;;;;;;39.25;27.92;;;11.50;99.40;;;;;;5026532;28;20026;-90
2021/10/09 08:51:07;;;;;;;36.08;28.00;;;11.50;99.40;;;;;;5033953;28;20028;-89
2021/10/09 08:53:39;;;;;;;38.88;29.48;;;11.60;99.30;;;;;;5036337;28;20049;-89
2021/10/09 08:56:05;;;;;;;39.63;28.33;;;11.50;99.20;;;;;;5034818;28;20025;-90
2021/10/09 08:58:34;;;;;;;43.20;30.55;;;11.60;99.20;;;;;;5034390;28;20049;-90
2021/10/09 09:01:08;;;;;;;42.30;27.90;;;11.60;99.30;;;;;;5041945;28;20017;-89
2021/10/09 09:04:05;;;;;;;38.75;26.83;;;11.60;99.20;;;;;;5042495;28;20006;-90
2021/10/09 09:32:29;;;;;;;36.38;25.77;;;12.00;99.20;;;;;;5034309;28;20035;-89
2021/10/09 09:35:04;;;;;;;36.17;27.38;;;12.00;99.20;;;;;;5031432;28;20116;-89
2021/10/09 09:40:04;;;;;;;32.72;23.65;;;12.10;99.20;;;;;;5033688;28;20075;-89
2021/10/09 09:42:29;;;;;;;34.58;26.83;;;12.20;99.20;;;;;;5022044;28;20026;-90
2021/10/09 09:45:00;;;;;;;38.10;28.17;;;12.20;99.20;;;;;;5030185;28;20083;-89
2021/10/09 09:47:37;;;;;;;34.85;26.48;;;12.30;99.10;;;;;;5032812;28;20040;-89
2021/10/09 09:50:06;;;;;;;35.85;25.63;;;12.40;99.10;;;;;;5032685;28;20021;-90
2021/10/09 09:52:41;;;;;;;32.70;25.95;;;12.40;99.10;;;;;;5022883;28;20137;-90
2021/10/09 09:55:09;;;;;;;35.00;24.33;;;12.50;99.10;;;;;;5031455;28;20492;-89
2021/10/09 09:57:37;;;;;;;37.97;24.40;;;12.50;99.10;;;;;;5016051;28;20557;-88
2021/10/09 10:00:14;;;;;;;31.48;23.70;;;12.60;99.10;;;;;;5033224;28;20037;-89
2021/10/09 10:02:46;;;;;;;29.65;22.83;;;12.70;99.10;;;;;;5026199;28;20018;-90
2021/10/09 10:05:12;;;;;;;31.30;24.63;;;12.80;99.10;;;;;;5060840;22;20053;-81
2021/10/09 10:07:39;;;;;;;28.40;22.60;;;12.90;99.00;;;;;;5042419;28;20389;-81
2021/10/09 10:10:06;;;;;;;29.25;22.05;;;12.90;99.00;;;;;;5058844;28;20438;-81
2021/10/09 10:12:33;;;;;;;32.40;23.98;;;13.00;99.00;;;;;;5028413;28;20028;-81
2021/10/09 10:15:00;;;;;;;29.52;23.48;;;13.10;98.90;;;;;;5042667;28;20115;-85
2021/10/09 10:17:42;;;;;;;27.30;22.40;;;13.20;98.90;;;;;;5058889;28;20028;-85
2021/10/09 10:20:18;;;;;;;31.23;24.05;;;13.30;98.80;;;;;;5058874;28;20081;-84
2021/10/09 10:22:44;;;;;;;29.25;22.23;;;13.40;98.80;;;;;;5042487;28;20415;-85
2021/10/09 10:25:25;;;;;;;27.90;21.42;;;13.40;98.70;;;;;;5059752;28;20159;-85
2021/10/09 10:28:00;;;;;;;28.25;22.13;;;13.50;98.60;;;;;;5061592;28;20089;-83
2021/10/09 10:30:28;;;;;;;27.75;22.35;;;13.60;98.60;;;;;;5045481;28;20474;-84
2021/10/09 10:32:58;;;;;;;28.02;21.35;;;13.70;98.50;;;;;;5058194;28;20021;-84
2021/10/09 10:35:30;;;;;;;27.75;22.65;;;13.70;98.50;;;;;;5058554;28;20510;-84
2021/10/09 10:38:22;;;;;;;25.90;20.00;;;13.80;98.30;;;;;;5044897;28;20044;-84
2021/10/09 10:40:57;;;;;;;27.50;21.38;;;13.90;98.40;;;;;;5070226;28;20497;-84
2021/10/09 10:46:02;;;;;;;28.25;21.60;;;14.10;98.30;;;;;;5069476;28;20040;-83
2021/10/09 10:49:00;;;;;;;27.17;21.27;;;14.20;98.10;;;;;;5076212;28;20044;-83
2021/10/09 10:59:31;;;;;;;23.70;19.35;;;14.40;97.60;;;;;;5076094;28;20074;-85
2021/10/09 11:02:10;;;;;;;26.70;20.88;;;14.60;97.60;;;;;;5067651;28;20021;-81
2021/10/09 11:04:37;;;;;;;27.25;20.25;;;14.70;97.50;;;;;;5057708;28;20061;-81
2021/10/09 11:07:03;;;;;;;23.98;18.80;;;14.70;97.30;;;;;;5052001;28;20025;-81
2021/10/09 11:09:29;;;;;;;27.30;19.60;;;14.80;97.30;;;;;;5072076;28;20108;-84
2021/10/09 11:11:55;;;;;;;25.88;19.60;;;14.90;97.20;;;;;;5041177;28;20029;-80
2021/10/09 11:14:28;;;;;;;25.92;17.80;;;15.00;97.20;;;;;;5057693;28;20040;-81
2021/10/09 11:17:04;;;;;;;25.13;18.50;;;15.10;97.20;;;;;;5041492;28;20017;-81
2021/10/09 11:19:48;;;;;;;26.55;18.33;;;15.20;97.10;;;;;;5057825;28;20060;-82
2021/10/09 11:22:17;;;;;;;22.42;18.25;;;15.30;97.10;;;;;;5057959;28;20351;-81
2021/10/09 11:24:48;;;;;;;25.52;18.75;;;15.40;97.00;;;;;;5075461;28;20028;-80
2021/10/09 11:27:15;;;;;;;21.98;17.63;;;15.50;96.60;;;;;;5071317;28;20025;-81
2021/10/09 11:29:59;;;;;;;24.10;18.98;;;15.60;96.60;;;;;;5071230;28;20049;-81
2021/10/09 11:32:31;;;;;;;20.20;16.88;;;15.70;96.40;;;;;;5053377;28;20021;-79
2021/10/09 11:34:57;;;;;;;22.42;17.33;;;15.80;96.30;;;;;;5057477;28;20055;-80
2021/10/09 11:37:22;;;;;;;20.33;17.55;;;15.90;96.30;;;;;;5043637;28;20040;-80
2021/10/09 11:39:51;;;;;;;23.05;17.13;;;16.00;96.10;;;;;;5071156;28;20028;-80
2021/10/09 11:42:23;;;;;;;21.80;17.73;;;16.10;96.00;;;;;;5075241;28;20033;-79
2021/10/09 11:45:06;;;;;;;24.90;18.08;;;16.10;95.80;;;;;;5056809;28;20114;-81
2021/10/09 11:56:09;;;;;;;22.65;17.77;;;16.50;94.70;;;;;;5074848;28;20116;-80
2021/10/09 11:58:52;;;;;;;24.95;18.08;;;16.50;94.60;;;;;;5056580;28;20111;-80
2021/10/09 12:01:27;;;;;;;25.27;18.55;;;16.70;93.90;;;;;;5074274;28;20067;-84
2021/10/09 12:03:53;;;;;;;24.70;19.33;;;16.70;93.80;;;;;;5037816;28;20047;-84
2021/10/09 12:06:19;;;;;;;23.88;19.85;;;16.80;93.90;;;;;;5056795;28;20024;-84
2021/10/09 12:08:53;;;;;;;24.98;18.33;;;16.90;93.80;;;;;;5051503;28;20027;-88
2021/10/09 12:11:31;;;;;;;26.67;17.75;;;16.90;93.70;;;;;;5057469;28;20023;-87
2021/10/09 12:13:59;;;;;;;21.83;17.30;;;17.00;93.80;;;;;;5028487;28;20048;-87
2021/10/09 12:16:28;;;;;;;24.27;18.02;;;17.10;94.30;;;;;;5050005;28;20030;-86
2021/10/09 12:19:06;;;;;;;23.55;17.55;;;17.20;94.20;;;;;;5057223;28;20025;-87
2021/10/09 12:21:35;;;;;;;26.13;17.05;;;17.30;94.00;;;;;;5074689;28;20420;-83
2021/10/09 12:24:12;;;;;;;20.13;16.55;;;17.40;93.70;;;;;;5074184;28;20083;-83
2021/10/09 12:26:38;;;;;;;21.02;17.05;;;17.40;93.50;;;;;;5073875;28;20419;-83
2021/10/09 12:29:15;;;;;;;24.23;17.55;;;17.50;93.00;;;;;;5056468;28;20029;-82
2021/10/09 12:31:46;;;;;;;24.08;18.30;;;17.60;92.50;;;;;;5074220;28;20071;-82
2021/10/09 12:34:35;;;;;;;26.65;20.85;;;17.60;92.10;;;;;;5074118;28;20024;-81
2021/10/09 12:37:14;;;;;;;24.45;18.38;;;17.70;91.50;;;;;;5074974;28;20021;-83
2021/10/09 12:39:41;;;;;;;24.17;17.92;;;17.70;92.60;;;;;;5037125;28;20033;-89
2021/10/09 12:42:09;;;;;;;24.05;19.05;;;17.80;92.30;;;;;;5057811;28;20111;-88
2021/10/09 12:44:34;;;;;;;24.10;18.25;;;17.90;92.20;;;;;;5074956;28;20042;-87
2021/10/09 12:47:00;;;;;;;24.35;18.58;;;18.00;91.20;;;;;;5047884;28;20059;-87
2021/10/09 12:49:30;;;;;;;26.77;18.15;;;18.00;91.00;;;;;;5023578;28;20029;-83
2021/10/09 12:52:25;;;;;;;22.40;17.65;;;18.00;91.00;;;;;;5056416;28;20036;-86
2021/10/09 12:54:51;;;;;;;22.20;17.17;;;18.10;91.30;;;;;;5042714;28;20024;-83
2021/10/09 12:57:16;;;;;;;23.92;17.98;;;18.20;91.00;;;;;;5039758;28;20033;-82
2021/10/09 12:59:42;;;;;;;23.48;16.90;;;18.20;91.20;;;;;;5055830;28;20024;-82
2021/10/09 13:02:07;;;;;;;54.17;18.42;;;18.30;91.30;;;;;;5039517;28;20064;-83
2021/10/09 13:04:34;;;;;;;21.90;16.30;;;18.30;90.70;;;;;;5037473;28;20056;-83
2021/10/09 13:07:00;;;;;;;22.65;17.40;;;18.40;91.00;;;;;;5055992;28;20024;-83
2021/10/09 13:09:26;;;;;;;24.25;15.98;;;18.40;90.70;;;;;;5056025;28;20017;-83
2021/10/09 13:11:58;;;;;;;23.20;16.73;;;18.50;90.40;;;;;;5073823;28;20513;-80
2021/10/09 13:14:23;;;;;;;23.13;17.02;;;18.60;91.00;;;;;;5055645;28;20031;-83
2021/10/09 13:16:50;;;;;;;21.80;17.55;;;18.60;91.10;;;;;;5027539;28;20029;-83
2021/10/09 13:19:16;;;;;;;22.23;17.27;;;18.70;91.10;;;;;;5065593;28;20368;-84
2021/10/09 13:21:41;;;;;;;22.83;17.00;;;18.80;91.20;;;;;;5053884;28;20029;-83
2021/10/09 13:24:07;;;;;;;21.20;16.75;;;18.80;91.00;;;;;;5055563;28;20028;-89
2021/10/09 13:26:34;;;;;;;21.35;16.65;;;18.90;90.10;;;;;;5052647;28;20023;-85
2021/10/09 13:29:00;;;;;;;22.13;16.90;;;18.90;89.70;;;;;;5035877;28;20025;-85
2021/10/09 13:31:28;;;;;;;22.45;16.75;;;18.90;90.40;;;;;;5040623;28;20021;-84
2021/10/09 13:33:54;;;;;;;20.45;16.52;;;19.00;90.10;;;;;;5075732;28;20029;-85
2021/10/09 13:36:24;;;;;;;20.35;16.73;;;19.00;89.10;;;;;;5041804;28;20019;-85
2021/10/09 13:38:50;;;;;;;21.17;16.23;;;19.10;90.60;;;;;;5077539;28;20032;-86
2021/10/09 13:41:19;;;;;;;21.88;17.02;;;19.10;90.30;;;;;;5042576;28;20021;-85
2021/10/09 13:43:45;;;;;;;20.63;16.40;;;19.10;89.60;;;;;;5054974;28;20027;-88
2021/10/09 13:46:15;;;;;;;24.13;17.10;;;19.20;88.10;;;;;;5059819;28;20021;-86
2021/10/09 13:48:43;;;;;;;22.13;16.80;;;19.20;88.60;;;;;;5059424;28;20037;-85
2021/10/09 13:51:13;;;;;;;21.65;16.52;;;19.20;88.90;;;;;;5053017;28;20021;-84
2021/10/09 13:53:45;;;;;;;22.60;17.45;;;19.30;88.60;;;;;;5044365;28;20014;-85
2021/10/09 13:56:12;;;;;;;23.90;17.60;;;19.30;88.80;;;;;;5040047;28;20028;-85
2021/10/09 13:58:38;;;;;;;21.65;16.17;;;19.30;90.10;;;;;;5054776;28;20021;-85
2021/10/09 14:01:04;;;;;;;20.77;15.95;;;19.30;90.40;;;;;;5059363;28;20025;-86
2021/10/09 14:03:32;;;;;;;22.65;16.90;;;19.40;90.30;;;;;;5060091;28;20035;-85
2021/10/09 14:05:59;;;;;;;23.05;17.02;;;19.40;90.40;;;;;;5059214;28;20045;-86
2021/10/09 14:08:26;;;;;;;21.00;16.70;;;19.50;90.40;;;;;;5059558;28;20027;-87
2021/10/09 14:10:54;;;;;;;22.67;16.52;;;19.50;90.00;;;;;;5059181;28;20029;-86
2021/10/09 14:13:21;;;;;;;21.25;15.88;;;19.50;90.10;;;;;;5076805;28;20031;-87
2021/10/09 14:15:47;;;;;;;20.02;15.57;;;19.50;90.00;;;;;;5059295;28;20121;-87
2021/10/09 14:18:16;;;;;;;20.15;15.18;;;19.60;90.30;;;;;;5036641;28;20482;-86
2021/10/09 14:21:02;;;;;;;20.95;16.13;;;19.50;90.50;;;;;;5051965;28;20059;-87
2021/10/09 14:23:28;;;;;;;23.33;16.00;;;19.60;90.20;;;;;;5053732;28;20096;-86
2021/10/09 14:25:54;;;;;;;20.20;15.98;;;19.60;90.60;;;;;;5042137;28;20107;-86
2021/10/09 14:28:19;;;;;;;21.13;16.08;;;19.60;90.00;;;;;;5058803;28;20020;-87
2021/10/09 14:30:48;;;;;;;20.90;15.63;;;19.60;90.20;;;;;;5058729;28;20017;-86
2021/10/09 14:33:14;;;;;;;24.92;17.00;;;19.60;88.90;;;;;;5059473;28;20025;-86
2021/10/09 14:35:40;;;;;;;21.45;16.38;;;19.60;88.40;;;;;;5045361;28;20067;-85
2021/10/09 14:38:06;;;;;;;25.25;16.58;;;19.60;88.00;;;;;;5035070;28;20524;-85
2021/10/09 14:40:32;;;;;;;19.80;16.17;;;19.60;89.90;;;;;;5051905;28;20356;-86
2021/10/09 14:42:59;;;;;;;21.67;17.15;;;19.60;89.60;;;;;;5041271;28;20040;-86
2021/10/09 14:45:26;;;;;;;22.90;16.65;;;19.60;89.20;;;;;;5057796;28;20027;-85
2021/10/09 15:19:59;;;;;;;22.35;17.05;;;19.30;90.50;;;;;;5061884;28;20103;-89
2021/10/09 15:22:25;;;;;;;21.42;16.02;;;19.30;90.00;;;;;;5042114;28;20033;-89